sensor_id;sensor_type;location;lat;lon;timestamp;pressure;altitude;pressure_sealevel;temperature;humidity
20145;BME280;10233;50.814;6.590;2022-07-29T00:00:12;100122.72;;;20.32;80.25
20145;BME280;10233;50.814;6.590;2022-07-29T00:01:15;100125.41;;;20.32;80.21
20145;BME280;10233;50.814;6.590;2022-07-29T00:02:16;100120.28;;;20.36;80.22
20145;BME280;10233;50.814;6.590;2022-07-29T00:03:16;100117.03;;;20.34;80.65
20145;BME280;10233;50.814;6.590;2022-07-29T00:04:16;100117.31;;;20.32;80.87
20145;BME280;10233;50.814;6.590;2022-07-29T00:05:17;100112.16;;;20.31;80.97
20145;BME280;10233;50.814;6.590;2022-07-29T00:06:17;100113.00;;;20.31;81.19
20145;BME280;10233;50.814;6.590;2022-07-29T00:07:18;100113.53;;;20.33;81.05
20145;BME280;10233;50.814;6.590;2022-07-29T00:08:19;100112.72;;;20.33;81.25
20145;BME280;10233;50.814;6.590;2022-07-29T00:09:20;100106.75;;;20.31;81.17
20145;BME280;10233;50.814;6.590;2022-07-29T00:10:20;100114.88;;;20.26;81.40
20145;BME280;10233;50.814;6.590;2022-07-29T00:11:21;100103.78;;;20.22;81.58
20145;BME280;10233;50.814;6.590;2022-07-29T00:12:23;100101.91;;;20.23;82.00
20145;BME280;10233;50.814;6.590;2022-07-29T00:13:24;100107.59;;;20.21;81.99
20145;BME280;10233;50.814;6.590;2022-07-29T00:14:25;100105.97;;;20.20;82.23
20145;BME280;10233;50.814;6.590;2022-07-29T00:15:26;100110.28;;;20.21;82.27
20145;BME280;10233;50.814;6.590;2022-07-29T00:16:26;100105.97;;;20.20;82.40
20145;BME280;10233;50.814;6.590;2022-07-29T00:17:27;100099.22;;;20.23;82.46
20145;BME280;10233;50.814;6.590;2022-07-29T00:18:27;100100.00;;;20.23;82.34
20145;BME280;10233;50.814;6.590;2022-07-29T00:19:28;100097.31;;;20.23;82.58
20145;BME280;10233;50.814;6.590;2022-07-29T00:20:28;100092.72;;;20.24;82.62
20145;BME280;10233;50.814;6.590;2022-07-29T00:21:29;100094.06;;;20.21;82.78
20145;BME280;10233;50.814;6.590;2022-07-29T00:22:29;100088.94;;;20.20;83.12
20145;BME280;10233;50.814;6.590;2022-07-29T00:23:30;100094.06;;;20.16;83.37
20145;BME280;10233;50.814;6.590;2022-07-29T00:24:30;100097.28;;;20.13;83.70
20145;BME280;10233;50.814;6.590;2022-07-29T00:25:31;100088.41;;;20.13;83.72
20145;BME280;10233;50.814;6.590;2022-07-29T00:26:31;100091.38;;;20.11;83.77
20145;BME280;10233;50.814;6.590;2022-07-29T00:27:32;100088.13;;;20.09;83.94
20145;BME280;10233;50.814;6.590;2022-07-29T00:28:33;100090.84;;;20.09;84.21
20145;BME280;10233;50.814;6.590;2022-07-29T00:29:33;100091.38;;;20.11;84.19
20145;BME280;10233;50.814;6.590;2022-07-29T00:30:34;100081.91;;;20.09;83.73
20145;BME280;10233;50.814;6.590;2022-07-29T00:31:34;100085.69;;;20.08;83.53
20145;BME280;10233;50.814;6.590;2022-07-29T00:32:35;100086.72;;;20.07;83.19
20145;BME280;10233;50.814;6.590;2022-07-29T00:33:35;100075.69;;;20.08;83.09
20145;BME280;10233;50.814;6.590;2022-07-29T00:34:36;100072.41;;;20.06;82.97
20145;BME280;10233;50.814;6.590;2022-07-29T00:35:55;100074.06;;;20.07;82.82
20145;BME280;10233;50.814;6.590;2022-07-29T00:36:56;100076.19;;;20.05;82.98
20145;BME280;10233;50.814;6.590;2022-07-29T00:37:57;100077.81;;;20.01;82.84
20145;BME280;10233;50.814;6.590;2022-07-29T00:38:57;100076.72;;;20.02;83.02
20145;BME280;10233;50.814;6.590;2022-07-29T00:39:58;100081.59;;;20.05;82.84
20145;BME280;10233;50.814;6.590;2022-07-29T00:40:58;100078.34;;;20.03;82.80
20145;BME280;10233;50.814;6.590;2022-07-29T00:42:02;100078.91;;;20.00;83.09
20145;BME280;10233;50.814;6.590;2022-07-29T00:43:03;100077.81;;;20.01;83.02
20145;BME280;10233;50.814;6.590;2022-07-29T00:44:03;100069.72;;;20.01;82.82
20145;BME280;10233;50.814;6.590;2022-07-29T00:45:04;100083.22;;;20.01;82.45
20145;BME280;10233;50.814;6.590;2022-07-29T00:46:05;100074.03;;;19.97;82.59
20145;BME280;10233;50.814;6.590;2022-07-29T00:47:06;100074.84;;;19.98;82.40
20145;BME280;10233;50.814;6.590;2022-07-29T00:48:06;100075.91;;;19.97;82.57
20145;BME280;10233;50.814;6.590;2022-07-29T00:49:08;100071.31;;;19.97;82.63
20145;BME280;10233;50.814;6.590;2022-07-29T00:50:11;100062.97;;;19.99;82.76
20145;BME280;10233;50.814;6.590;2022-07-29T00:51:12;100074.03;;;19.97;82.72
20145;BME280;10233;50.814;6.590;2022-07-29T00:52:13;100069.72;;;19.96;83.33
20145;BME280;10233;50.814;6.590;2022-07-29T00:53:13;100071.84;;;19.94;83.62
20145;BME280;10233;50.814;6.590;2022-07-29T00:54:14;100066.19;;;19.91;84.03
20145;BME280;10233;50.814;6.590;2022-07-29T00:55:15;100069.97;;;19.90;84.28
20145;BME280;10233;50.814;6.590;2022-07-29T00:56:16;100066.44;;;19.89;84.63
20145;BME280;10233;50.814;6.590;2022-07-29T00:57:17;100069.94;;;19.85;85.03
20145;BME280;10233;50.814;6.590;2022-07-29T00:58:17;100066.16;;;19.81;85.13
20145;BME280;10233;50.814;6.590;2022-07-29T00:59:17;100057.25;;;19.80;85.47
20145;BME280;10233;50.814;6.590;2022-07-29T01:00:21;100063.19;;;19.77;85.70
20145;BME280;10233;50.814;6.590;2022-07-29T01:01:22;100062.91;;;19.69;86.45
20145;BME280;10233;50.814;6.590;2022-07-29T01:02:22;100059.63;;;19.67;86.48
20145;BME280;10233;50.814;6.590;2022-07-29T01:03:23;100057.19;;;19.60;86.65
20145;BME280;10233;50.814;6.590;2022-07-29T01:04:23;100060.69;;;19.56;86.83
20145;BME280;10233;50.814;6.590;2022-07-29T01:05:26;100055.53;;;19.54;87.53
20145;BME280;10233;50.814;6.590;2022-07-29T01:06:28;100051.75;;;19.50;87.84
20145;BME280;10233;50.814;6.590;2022-07-29T01:07:30;100057.94;;;19.46;88.26
20145;BME280;10233;50.814;6.590;2022-07-29T01:08:31;100052.03;;;19.49;89.22
20145;BME280;10233;50.814;6.590;2022-07-29T01:09:33;100052.28;;;19.47;88.97
20145;BME280;10233;50.814;6.590;2022-07-29T01:10:37;100057.69;;;19.47;89.50
20145;BME280;10233;50.814;6.590;2022-07-29T01:11:38;100054.72;;;19.44;90.36
20145;BME280;10233;50.814;6.590;2022-07-29T01:12:40;100049.81;;;19.36;90.87
20145;BME280;10233;50.814;6.590;2022-07-29T01:13:44;100049.53;;;19.27;91.63
20145;BME280;10233;50.814;6.590;2022-07-29T01:14:47;100055.72;;;19.28;92.44
20145;BME280;10233;50.814;6.590;2022-07-29T01:15:53;100045.19;;;19.26;93.16
20145;BME280;10233;50.814;6.590;2022-07-29T01:17:00;100043.56;;;19.25;94.27
20145;BME280;10233;50.814;6.590;2022-07-29T01:18:24;100052.72;;;19.24;95.01
20145;BME280;10233;50.814;6.590;2022-07-29T01:19:52;100046.50;;;19.24;95.54
20145;BME280;10233;50.814;6.590;2022-07-29T01:30:37;100040.81;;;19.20;96.03
20145;BME280;10233;50.814;6.590;2022-07-29T01:33:03;100040.50;;;19.12;97.07
20145;BME280;10233;50.814;6.590;2022-07-29T01:34:08;100045.63;;;19.08;97.41
20145;BME280;10233;50.814;6.590;2022-07-29T01:35:19;100042.09;;;19.08;97.87
20145;BME280;10233;50.814;6.590;2022-07-29T01:36:32;100043.41;;;19.00;98.42
20145;BME280;10233;50.814;6.590;2022-07-29T01:37:44;100036.66;;;18.98;98.51
20145;BME280;10233;50.814;6.590;2022-07-29T01:38:54;100039.59;;;18.96;98.72
20145;BME280;10233;50.814;6.590;2022-07-29T01:39:57;100044.47;;;18.94;98.09
20145;BME280;10233;50.814;6.590;2022-07-29T01:41:04;100034.44;;;18.90;97.94
20145;BME280;10233;50.814;6.590;2022-07-29T01:43:51;100044.19;;;18.91;97.80
20145;BME280;10233;50.814;6.590;2022-07-29T01:45:00;100036.63;;;18.93;96.86
20145;BME280;10233;50.814;6.590;2022-07-29T01:46:05;100045.31;;;19.00;96.11
20145;BME280;10233;50.814;6.590;2022-07-29T01:47:13;100043.97;;;19.02;95.09
20145;BME280;10233;50.814;6.590;2022-07-29T01:48:53;100044.00;;;19.07;95.34
20145;BME280;10233;50.814;6.590;2022-07-29T01:49:56;100048.84;;;19.05;94.87
20145;BME280;10233;50.814;6.590;2022-07-29T01:51:02;100045.06;;;19.06;94.41
20145;BME280;10233;50.814;6.590;2022-07-29T01:52:16;100051.00;;;19.08;94.24
20145;BME280;10233;50.814;6.590;2022-07-29T01:53:36;100050.72;;;19.00;94.34
20145;BME280;10233;50.814;6.590;2022-07-29T01:54:42;100057.44;;;18.97;94.60
20145;BME280;10233;50.814;6.590;2022-07-29T01:55:45;100046.66;;;18.97;94.42
20145;BME280;10233;50.814;6.590;2022-07-29T01:56:48;100049.84;;;18.94;94.38
20145;BME280;10233;50.814;6.590;2022-07-29T01:57:54;100044.50;;;18.99;94.03
20145;BME280;10233;50.814;6.590;2022-07-29T01:58:57;100051.78;;;19.04;93.27
20145;BME280;10233;50.814;6.590;2022-07-29T01:59:59;100043.44;;;19.05;92.71
20145;BME280;10233;50.814;6.590;2022-07-29T02:01:12;100043.97;;;19.02;92.28
20145;BME280;10233;50.814;6.590;2022-07-29T02:02:18;100051.00;;;19.03;91.92
20145;BME280;10233;50.814;6.590;2022-07-29T02:03:20;100046.09;;;19.00;92.13
20145;BME280;10233;50.814;6.590;2022-07-29T02:04:22;100043.16;;;19.02;92.04
20145;BME280;10233;50.814;6.590;2022-07-29T02:05:25;100046.69;;;19.02;91.79
20145;BME280;10233;50.814;6.590;2022-07-29T02:06:28;100043.44;;;19.05;91.42
20145;BME280;10233;50.814;6.590;2022-07-29T02:07:31;100045.88;;;19.07;91.17
20145;BME280;10233;50.814;6.590;2022-07-29T02:08:33;100043.47;;;19.10;90.89
20145;BME280;10233;50.814;6.590;2022-07-29T02:09:35;100041.03;;;19.09;90.81
20145;BME280;10233;50.814;6.590;2022-07-29T02:10:37;100043.22;;;19.12;90.77
20145;BME280;10233;50.814;6.590;2022-07-29T02:11:39;100045.88;;;19.07;91.01
20145;BME280;10233;50.814;6.590;2022-07-29T02:12:42;100043.69;;;19.04;91.68
20145;BME280;10233;50.814;6.590;2022-07-29T02:13:44;100040.44;;;18.97;92.69
20145;BME280;10233;50.814;6.590;2022-07-29T02:14:48;100046.09;;;18.95;93.59
20145;BME280;10233;50.814;6.590;2022-07-29T02:15:49;100047.16;;;18.94;93.84
20145;BME280;10233;50.814;6.590;2022-07-29T02:16:53;100042.31;;;18.96;94.05
20145;BME280;10233;50.814;6.590;2022-07-29T02:18:20;100040.69;;;18.95;94.14
20145;BME280;10233;50.814;6.590;2022-07-29T02:19:25;100051.44;;;18.90;94.64
20145;BME280;10233;50.814;6.590;2022-07-29T02:20:28;100041.19;;;18.87;94.98
20145;BME280;10233;50.814;6.590;2022-07-29T02:21:31;100047.66;;;18.91;95.26
20145;BME280;10233;50.814;6.590;2022-07-29T02:22:35;100043.38;;;18.95;94.83
20145;BME280;10233;50.814;6.590;2022-07-29T02:23:38;100041.25;;;18.97;95.17
20145;BME280;10233;50.814;6.590;2022-07-29T02:24:40;100046.09;;;19.00;95.05
20145;BME280;10233;50.814;6.590;2022-07-29T02:25:42;100046.09;;;19.00;95.35
20145;BME280;10233;50.814;6.590;2022-07-29T02:26:44;100054.25;;;19.10;95.19
20145;BME280;10233;50.814;6.590;2022-07-29T02:27:46;100051.53;;;19.05;95.32
20145;BME280;10233;50.814;6.590;2022-07-29T02:28:49;100057.16;;;19.04;95.83
20145;BME280;10233;50.814;6.590;2022-07-29T02:29:52;100057.72;;;19.01;95.98
20145;BME280;10233;50.814;6.590;2022-07-29T02:30:55;100063.34;;;18.99;96.07
20145;BME280;10233;50.814;6.590;2022-07-29T02:31:58;100061.19;;;18.96;96.09
20145;BME280;10233;50.814;6.590;2022-07-29T02:33:01;100056.59;;;18.97;96.21
20145;BME280;10233;50.814;6.590;2022-07-29T02:34:03;100058.75;;;18.95;96.23
20145;BME280;10233;50.814;6.590;2022-07-29T02:35:07;100055.03;;;19.01;96.46
20145;BME280;10233;50.814;6.590;2022-07-29T02:36:08;100051.50;;;19.00;96.13
20145;BME280;10233;50.814;6.590;2022-07-29T02:37:10;100048.25;;;18.93;96.38
20145;BME280;10233;50.814;6.590;2022-07-29T02:38:14;100045.81;;;18.97;96.47
20145;BME280;10233;50.814;6.590;2022-07-29T02:39:34;100047.69;;;18.96;96.28
20145;BME280;10233;50.814;6.590;2022-07-29T02:40:40;100045.00;;;18.96;96.14
20145;BME280;10233;50.814;6.590;2022-07-29T02:41:55;100051.50;;;19.00;96.39
20145;BME280;10233;50.814;6.590;2022-07-29T02:42:58;100045.56;;;18.98;96.50
20145;BME280;10233;50.814;6.590;2022-07-29T02:44:06;100050.41;;;19.01;96.59
20145;BME280;10233;50.814;6.590;2022-07-29T02:45:09;100040.97;;;18.99;96.59
20145;BME280;10233;50.814;6.590;2022-07-29T02:46:14;100047.16;;;18.94;96.75
20145;BME280;10233;50.814;6.590;2022-07-29T02:47:32;100049.34;;;18.97;96.44
20145;BME280;10233;50.814;6.590;2022-07-29T02:48:38;100040.94;;;18.94;96.66
20145;BME280;10233;50.814;6.590;2022-07-29T02:51:13;100048.78;;;18.95;96.30
20145;BME280;10233;50.814;6.590;2022-07-29T02:52:27;100053.38;;;18.95;96.29
20145;BME280;10233;50.814;6.590;2022-07-29T02:53:33;100050.94;;;18.93;96.02
20145;BME280;10233;50.814;6.590;2022-07-29T02:54:50;100052.56;;;18.94;96.10
20145;BME280;10233;50.814;6.590;2022-07-29T02:55:57;100050.41;;;18.96;96.10
20145;BME280;10233;50.814;6.590;2022-07-29T02:57:04;100054.44;;;18.99;95.85
20145;BME280;10233;50.814;6.590;2022-07-29T02:58:14;100052.56;;;18.94;95.74
20145;BME280;10233;50.814;6.590;2022-07-29T02:59:20;100051.47;;;18.95;95.88
20145;BME280;10233;50.814;6.590;2022-07-29T03:00:27;100052.84;;;18.98;95.27
20145;BME280;10233;50.814;6.590;2022-07-29T03:01:31;100052.59;;;19.04;94.56
20145;BME280;10233;50.814;6.590;2022-07-29T03:02:36;100047.50;;;19.08;94.85
20145;BME280;10233;50.814;6.590;2022-07-29T03:03:39;100058.28;;;19.08;94.78
20145;BME280;10233;50.814;6.590;2022-07-29T03:04:41;100056.94;;;19.10;94.86
20145;BME280;10233;50.814;6.590;2022-07-29T03:05:43;100052.38;;;19.11;95.10
20145;BME280;10233;50.814;6.590;2022-07-29T03:06:44;100062.59;;;19.09;95.96
20145;BME280;10233;50.814;6.590;2022-07-29T03:07:51;100053.94;;;19.02;96.33
20145;BME280;10233;50.814;6.590;2022-07-29T03:08:53;100046.69;;;19.02;95.96
20145;BME280;10233;50.814;6.590;2022-07-29T03:09:55;100050.97;;;18.98;96.09
20145;BME280;10233;50.814;6.590;2022-07-29T03:10:57;100047.69;;;18.96;96.02
20145;BME280;10233;50.814;6.590;2022-07-29T03:11:58;100044.22;;;18.96;95.73
20145;BME280;10233;50.814;6.590;2022-07-29T03:13:00;100043.38;;;18.95;95.66
20145;BME280;10233;50.814;6.590;2022-07-29T03:14:02;100044.22;;;18.96;95.63
20145;BME280;10233;50.814;6.590;2022-07-29T03:15:03;100045.81;;;18.97;95.53
20145;BME280;10233;50.814;6.590;2022-07-29T03:16:05;100048.53;;;18.97;95.47
20145;BME280;10233;50.814;6.590;2022-07-29T03:17:06;100042.34;;;19.01;95.78
20145;BME280;10233;50.814;6.590;2022-07-29T03:18:07;100046.69;;;19.02;95.56
20145;BME280;10233;50.814;6.590;2022-07-29T03:19:08;100047.16;;;18.94;96.15
20145;BME280;10233;50.814;6.590;2022-07-29T03:20:11;100047.38;;;18.88;96.82
20145;BME280;10233;50.814;6.590;2022-07-29T03:21:12;100057.88;;;18.84;96.88
20145;BME280;10233;50.814;6.590;2022-07-29T03:22:13;100053.00;;;18.81;97.47
20145;BME280;10233;50.814;6.590;2022-07-29T03:23:19;100051.88;;;18.77;97.46
20145;BME280;10233;50.814;6.590;2022-07-29T03:24:30;100057.53;;;18.71;97.76
20145;BME280;10233;50.814;6.590;2022-07-29T03:25:34;100054.00;;;18.70;97.58
20145;BME280;10233;50.814;6.590;2022-07-29T03:26:35;100061.81;;;18.67;97.08
20145;BME280;10233;50.814;6.590;2022-07-29T03:27:35;100061.81;;;18.67;96.94
20145;BME280;10233;50.814;6.590;2022-07-29T03:28:36;100064.75;;;18.65;96.84
20145;BME280;10233;50.814;6.590;2022-07-29T03:29:36;100067.69;;;18.64;96.97
20145;BME280;10233;50.814;6.590;2022-07-29T03:30:37;100071.75;;;18.66;96.48
20145;BME280;10233;50.814;6.590;2022-07-29T03:31:37;100067.97;;;18.62;96.73
20145;BME280;10233;50.814;6.590;2022-07-29T03:32:39;100068.25;;;18.61;96.91
20145;BME280;10233;50.814;6.590;2022-07-29T03:33:40;100066.91;;;18.63;96.89
20145;BME280;10233;50.814;6.590;2022-07-29T03:34:40;100059.66;;;18.69;96.48
20145;BME280;10233;50.814;6.590;2022-07-29T03:35:41;100057.81;;;18.74;96.22
20145;BME280;10233;50.814;6.590;2022-07-29T03:36:42;100054.88;;;18.76;96.06
20145;BME280;10233;50.814;6.590;2022-07-29T03:37:43;100054.63;;;18.82;95.85
20145;BME280;10233;50.814;6.590;2022-07-29T03:38:44;100053.22;;;18.75;95.94
20145;BME280;10233;50.814;6.590;2022-07-29T03:39:47;100062.97;;;18.81;95.83
20145;BME280;10233;50.814;6.590;2022-07-29T03:40:53;100062.97;;;18.81;95.70
20145;BME280;10233;50.814;6.590;2022-07-29T03:41:55;100064.88;;;18.85;95.98
20145;BME280;10233;50.814;6.590;2022-07-29T03:42:58;100067.03;;;18.83;95.71
20145;BME280;10233;50.814;6.590;2022-07-29T03:44:00;100066.75;;;18.85;95.60
20145;BME280;10233;50.814;6.590;2022-07-29T03:45:06;100068.13;;;18.87;95.17
20145;BME280;10233;50.814;6.590;2022-07-29T03:46:09;100062.44;;;18.84;95.59
20145;BME280;10233;50.814;6.590;2022-07-29T03:47:10;100062.50;;;18.94;95.01
20145;BME280;10233;50.814;6.590;2022-07-29T03:48:15;100067.97;;;19.04;94.38
20145;BME280;10233;50.814;6.590;2022-07-29T03:49:18;100065.31;;;19.14;93.19
20145;BME280;10233;50.814;6.590;2022-07-29T03:50:21;100068.91;;;19.24;92.27
20145;BME280;10233;50.814;6.590;2022-07-29T03:51:21;100064.97;;;19.47;91.31
20145;BME280;10233;50.814;6.590;2022-07-29T03:52:22;100067.97;;;19.55;90.48
20145;BME280;10233;50.814;6.590;2022-07-29T03:53:23;100063.16;;;19.67;89.64
20145;BME280;10233;50.814;6.590;2022-07-29T03:54:23;100063.19;;;19.77;88.96
20145;BME280;10233;50.814;6.590;2022-07-29T03:55:24;100057.25;;;19.80;87.79
20145;BME280;10233;50.814;6.590;2022-07-29T03:56:26;100061.03;;;19.89;87.38
20145;BME280;10233;50.814;6.590;2022-07-29T03:57:28;100061.59;;;19.96;86.96
20145;BME280;10233;50.814;6.590;2022-07-29T03:58:31;100052.69;;;20.01;86.39
20145;BME280;10233;50.814;6.590;2022-07-29T03:59:32;100054.31;;;20.02;86.08
20145;BME280;10233;50.814;6.590;2022-07-29T04:00:35;100053.53;;;20.06;85.61
20145;BME280;10233;50.814;6.590;2022-07-29T04:01:37;100056.75;;;20.03;85.83
20145;BME280;10233;50.814;6.590;2022-07-29T04:02:39;100061.34;;;20.03;85.56
20145;BME280;10233;50.814;6.590;2022-07-29T04:03:40;100057.81;;;20.02;85.67
20145;BME280;10233;50.814;6.590;2022-07-29T04:04:40;100056.47;;;20.05;85.82
20145;BME280;10233;50.814;6.590;2022-07-29T04:05:41;100062.69;;;20.05;85.59
20145;BME280;10233;50.814;6.590;2022-07-29T04:06:43;100058.97;;;20.16;85.20
20145;BME280;10233;50.814;6.590;2022-07-29T04:07:47;100060.56;;;20.12;85.69
20145;BME280;10233;50.814;6.590;2022-07-29T04:08:48;100067.81;;;20.07;85.62
20145;BME280;10233;50.814;6.590;2022-07-29T04:09:49;100073.19;;;19.97;86.04
20145;BME280;10233;50.814;6.590;2022-07-29T04:10:49;100074.56;;;19.99;86.23
20145;BME280;10233;50.814;6.590;2022-07-29T04:11:50;100077.56;;;20.03;86.27
20145;BME280;10233;50.814;6.590;2022-07-29T04:12:51;100071.84;;;20.04;86.10
20145;BME280;10233;50.814;6.590;2022-07-29T04:13:51;100074.03;;;20.02;86.10
20145;BME280;10233;50.814;6.590;2022-07-29T04:14:52;100067.28;;;20.05;85.90
20145;BME280;10233;50.814;6.590;2022-07-29T04:15:55;100072.47;;;20.11;86.18
20145;BME280;10233;50.814;6.590;2022-07-29T04:16:56;100066.81;;;20.23;85.51
20145;BME280;10233;50.814;6.590;2022-07-29T04:17:56;100074.09;;;20.22;85.36
20145;BME280;10233;50.814;6.590;2022-07-29T04:18:57;100073.56;;;20.20;85.05
20145;BME280;10233;50.814;6.590;2022-07-29T04:19:57;100073.00;;;20.18;85.02
20145;BME280;10233;50.814;6.590;2022-07-29T04:20:58;100070.59;;;20.27;85.07
20145;BME280;10233;50.814;6.590;2022-07-29T04:22:01;100070.84;;;20.30;84.74
20145;BME280;10233;50.814;6.590;2022-07-29T04:23:01;100071.38;;;20.32;84.01
20145;BME280;10233;50.814;6.590;2022-07-29T04:24:02;100073.00;;;20.23;83.69
20145;BME280;10233;50.814;6.590;2022-07-29T04:25:02;100069.25;;;20.24;83.88
20145;BME280;10233;50.814;6.590;2022-07-29T04:26:03;100082.44;;;20.21;83.86
20145;BME280;10233;50.814;6.590;2022-07-29T04:27:03;100087.06;;;20.15;84.39
20145;BME280;10233;50.814;6.590;2022-07-29T04:28:04;100083.78;;;20.13;84.49
20145;BME280;10233;50.814;6.590;2022-07-29T04:29:05;100082.72;;;20.14;84.45
20145;BME280;10233;50.814;6.590;2022-07-29T04:30:05;100083.78;;;20.08;84.48
20145;BME280;10233;50.814;6.590;2022-07-29T04:31:06;100083.78;;;20.08;84.45
20145;BME280;10233;50.814;6.590;2022-07-29T04:32:07;100090.28;;;20.07;84.84
20145;BME280;10233;50.814;6.590;2022-07-29T04:33:07;100098.06;;;19.99;84.86
20145;BME280;10233;50.814;6.590;2022-07-29T04:34:08;100092.91;;;19.92;85.50
20145;BME280;10233;50.814;6.590;2022-07-29T04:35:09;100102.34;;;19.85;86.22
20145;BME280;10233;50.814;6.590;2022-07-29T04:36:09;100087.72;;;19.71;86.93
20145;BME280;10233;50.814;6.590;2022-07-29T04:37:11;100104.16;;;19.69;87.80
20145;BME280;10233;50.814;6.590;2022-07-29T04:38:11;100095.53;;;19.67;87.71
20145;BME280;10233;50.814;6.590;2022-07-29T04:39:12;100098.22;;;19.67;88.11
20145;BME280;10233;50.814;6.590;2022-07-29T04:40:13;100102.81;;;19.72;88.19
20145;BME280;10233;50.814;6.590;2022-07-29T04:41:14;100100.41;;;19.70;88.11
20145;BME280;10233;50.814;6.590;2022-07-29T04:42:14;100108.53;;;19.75;88.04
20145;BME280;10233;50.814;6.590;2022-07-29T04:43:15;100106.09;;;19.74;88.20
20145;BME280;10233;50.814;6.590;2022-07-29T04:44:16;100106.59;;;19.71;88.27
20145;BME280;10233;50.814;6.590;2022-07-29T04:45:17;100100.69;;;19.74;88.52
20145;BME280;10233;50.814;6.590;2022-07-29T04:46:18;100105.00;;;19.75;88.56
20145;BME280;10233;50.814;6.590;2022-07-29T04:47:18;100104.72;;;19.71;88.89
20145;BME280;10233;50.814;6.590;2022-07-29T04:48:19;100103.88;;;19.66;89.03
20145;BME280;10233;50.814;6.590;2022-07-29T04:49:19;100104.16;;;19.64;89.14
20145;BME280;10233;50.814;6.590;2022-07-29T04:50:23;100109.28;;;19.66;89.33
20145;BME280;10233;50.814;6.590;2022-07-29T04:51:23;100111.16;;;19.65;89.72
20145;BME280;10233;50.814;6.590;2022-07-29T04:52:24;100100.44;;;19.75;89.14
20145;BME280;10233;50.814;6.590;2022-07-29T04:53:25;100105.84;;;19.80;88.81
20145;BME280;10233;50.814;6.590;2022-07-29T04:54:25;100095.84;;;19.81;89.03
20145;BME280;10233;50.814;6.590;2022-07-29T04:55:26;100101.25;;;19.81;88.95
20145;BME280;10233;50.814;6.590;2022-07-29T04:56:27;100100.47;;;19.85;88.80
20145;BME280;10233;50.814;6.590;2022-07-29T04:57:27;100101.53;;;19.89;88.75
20145;BME280;10233;50.814;6.590;2022-07-29T04:58:27;100108.59;;;19.95;88.27
20145;BME280;10233;50.814;6.590;2022-07-29T04:59:28;100107.25;;;19.98;88.35
20145;BME280;10233;50.814;6.590;2022-07-29T05:00:28;100109.38;;;19.96;88.47
20145;BME280;10233;50.814;6.590;2022-07-29T05:01:29;100112.63;;;19.98;88.92
20145;BME280;10233;50.814;6.590;2022-07-29T05:02:29;100119.91;;;19.92;89.47
20145;BME280;10233;50.814;6.590;2022-07-29T05:03:30;100117.69;;;19.79;89.91
20145;BME280;10233;50.814;6.590;2022-07-29T05:04:30;100121.47;;;19.73;90.36
20145;BME280;10233;50.814;6.590;2022-07-29T05:05:31;100120.13;;;19.76;90.19
20145;BME280;10233;50.814;6.590;2022-07-29T05:06:31;100124.97;;;19.69;91.19
20145;BME280;10233;50.814;6.590;2022-07-29T05:07:32;100131.16;;;19.69;91.69
20145;BME280;10233;50.814;6.590;2022-07-29T05:08:33;100131.63;;;19.51;92.71
20145;BME280;10233;50.814;6.590;2022-07-29T05:09:36;100130.56;;;19.52;92.58
20145;BME280;10233;50.814;6.590;2022-07-29T05:10:36;100139.16;;;19.49;92.85
20145;BME280;10233;50.814;6.590;2022-07-29T05:11:38;100139.41;;;19.48;92.97
20145;BME280;10233;50.814;6.590;2022-07-29T05:12:38;100138.03;;;19.40;93.41
20145;BME280;10233;50.814;6.590;2022-07-29T05:13:39;100146.13;;;19.40;93.56
20145;BME280;10233;50.814;6.590;2022-07-29T05:14:40;100144.53;;;19.44;93.32
20145;BME280;10233;50.814;6.590;2022-07-29T05:15:40;100143.16;;;19.42;93.12
20145;BME280;10233;50.814;6.590;2022-07-29T05:16:41;100137.22;;;19.35;94.04
20145;BME280;10233;50.814;6.590;2022-07-29T05:17:42;100138.81;;;19.36;94.25
20145;BME280;10233;50.814;6.590;2022-07-29T05:18:42;100146.09;;;19.35;94.07
20145;BME280;10233;50.814;6.590;2022-07-29T05:19:43;100152.81;;;19.33;94.22
20145;BME280;10233;50.814;6.590;2022-07-29T05:20:44;100153.09;;;19.31;94.28
20145;BME280;10233;50.814;6.590;2022-07-29T05:21:44;100166.59;;;19.31;94.08
20145;BME280;10233;50.814;6.590;2022-07-29T05:22:45;100157.91;;;19.24;94.96
20145;BME280;10233;50.814;6.590;2022-07-29T05:23:45;100169.66;;;19.13;95.73
20145;BME280;10233;50.814;6.590;2022-07-29T05:24:46;100176.72;;;19.19;95.79
20145;BME280;10233;50.814;6.590;2022-07-29T05:25:47;100183.38;;;19.07;96.87
20145;BME280;10233;50.814;6.590;2022-07-29T05:26:47;100188.84;;;18.85;97.37
20145;BME280;10233;50.814;6.590;2022-07-29T05:27:48;100190.19;;;18.83;98.27
20145;BME280;10233;50.814;6.590;2022-07-29T05:28:48;100193.06;;;18.76;98.81
20145;BME280;10233;50.814;6.590;2022-07-29T05:29:52;100184.25;;;18.81;98.75
20145;BME280;10233;50.814;6.590;2022-07-29T05:30:52;100182.63;;;18.85;98.22
20145;BME280;10233;50.814;6.590;2022-07-29T05:31:53;100170.53;;;18.87;97.39
20145;BME280;10233;50.814;6.590;2022-07-29T05:32:54;100172.22;;;18.93;97.26
20145;BME280;10233;50.814;6.590;2022-07-29T05:33:54;100174.38;;;18.96;97.13
20145;BME280;10233;50.814;6.590;2022-07-29T05:34:55;100178.72;;;18.97;96.94
20145;BME280;10233;50.814;6.590;2022-07-29T05:35:55;100175.78;;;19.04;96.31
20145;BME280;10233;50.814;6.590;2022-07-29T05:36:56;100172.06;;;19.10;95.84
20145;BME280;10233;50.814;6.590;2022-07-29T05:37:56;100168.09;;;19.17;95.66
20145;BME280;10233;50.814;6.590;2022-07-29T05:38:57;100162.28;;;19.35;94.85
20145;BME280;10233;50.814;6.590;2022-07-29T05:39:57;100164.03;;;19.56;93.44
20145;BME280;10233;50.814;6.590;2022-07-29T05:40:58;100158.16;;;19.74;91.90
20145;BME280;10233;50.814;6.590;2022-07-29T05:41:59;100163.06;;;19.82;91.33